Time;durP1;ratioP1;P1;durP2;ratioP2;P2;SDS_P1;SDS_P2;PMS_P1;PMS_P2;Temp;Humidity;BMP_temperature;BMP_pressure;BME280_temperature;BME280_humidity;BME280_pressure;Samples;Min_cycle;Max_cycle;Signal;HPM_P1;HPM_P2
2024/01/14 00:00:14;;;;;;;45.22;19.05;;;;;;;-4.22;100.00;97462.25;4995467;28;20402;-76
2024/01/14 00:02:40;;;;;;;44.03;18.15;;;;;;;-4.22;100.00;97459.66;4995297;28;20402;-76
2024/01/14 00:05:07;;;;;;;42.78;17.67;;;;;;;-4.20;100.00;97460.28;4994965;28;20945;-76
2024/01/14 00:07:33;;;;;;;42.30;17.03;;;;;;;-4.19;100.00;97467.06;4995286;28;20394;-77
2024/01/14 00:09:59;;;;;;;44.83;18.27;;;;;;;-4.19;100.00;97451.56;4995331;28;20394;-77
2024/01/14 00:12:25;;;;;;;44.50;18.10;;;;;;;-4.19;100.00;97441.22;4995544;28;20402;-76
2024/01/14 00:14:53;;;;;;;45.95;17.80;;;;;;;-4.19;100.00;97435.25;4994767;28;20402;-77
2024/01/14 00:17:19;;;;;;;42.78;17.85;;;;;;;-4.21;100.00;97435.41;4995278;28;20402;-76
2024/01/14 00:19:45;;;;;;;41.90;17.75;;;;;;;-4.20;100.00;97436.22;4994591;28;20405;-76
2024/01/14 00:22:11;;;;;;;44.33;17.60;;;;;;;-4.20;100.00;97438.78;4995220;28;20477;-76
2024/01/14 00:24:38;;;;;;;38.55;17.52;;;;;;;-4.19;100.00;97437.84;4994287;28;20407;-77
2024/01/14 00:27:04;;;;;;;43.70;17.67;;;;;;;-4.20;100.00;97433.63;4994661;28;20867;-77
2024/01/14 00:29:30;;;;;;;41.57;17.40;;;;;;;-4.19;100.00;97428.31;4994467;28;20486;-77
2024/01/14 00:31:58;;;;;;;40.63;16.80;;;;;;;-4.20;100.00;97425.88;4994309;28;20433;-77
2024/01/14 00:34:24;;;;;;;40.13;17.17;;;;;;;-4.21;100.00;97430.22;4994276;28;20417;-77
2024/01/14 00:36:51;;;;;;;44.73;17.87;;;;;;;-4.20;100.00;97420.72;4994020;28;20407;-77
2024/01/14 00:39:17;;;;;;;56.78;22.45;;;;;;;-4.22;100.00;97414.91;4993911;28;20402;-77
2024/01/14 00:41:43;;;;;;;51.08;20.40;;;;;;;-4.23;100.00;97413.28;4994457;28;20495;-77
2024/01/14 00:44:09;;;;;;;58.08;22.45;;;;;;;-4.26;100.00;97404.06;4993999;28;20398;-76
2024/01/14 00:46:35;;;;;;;53.72;20.23;;;;;;;-4.28;100.00;97411.97;4994291;28;20528;-77
2024/01/14 00:49:03;;;;;;;52.30;20.55;;;;;;;-4.26;100.00;97398.91;4993990;28;20946;-77
2024/01/14 00:51:29;;;;;;;46.75;17.95;;;;;;;-4.25;100.00;97392.75;4994387;28;20859;-77
2024/01/14 00:53:55;;;;;;;47.17;19.07;;;;;;;-4.24;100.00;97393.56;4994029;28;20756;-77
2024/01/14 00:56:21;;;;;;;53.47;21.92;;;;;;;-4.24;100.00;97380.66;4994362;28;20918;-77
2024/01/14 00:58:48;;;;;;;54.88;21.67;;;;;;;-4.27;100.00;97363.69;4994199;28;20394;-77
2024/01/14 01:01:14;;;;;;;51.60;21.02;;;;;;;-4.29;100.00;97365.63;4994132;28;20395;-76
2024/01/14 01:03:40;;;;;;;52.45;19.55;;;;;;;-4.30;100.00;97353.69;4993707;28;20634;-76
2024/01/14 01:06:08;;;;;;;54.10;21.75;;;;;;;-4.31;100.00;97359.81;4992363;28;20518;-76
2024/01/14 01:08:34;;;;;;;63.35;24.13;;;;;;;-4.33;100.00;97354.81;4993587;28;20823;-76
2024/01/14 01:11:01;;;;;;;60.67;22.90;;;;;;;-4.35;100.00;97351.56;4993519;28;20429;-76
2024/01/14 01:13:27;;;;;;;56.08;22.17;;;;;;;-4.34;100.00;97357.53;4993779;28;20408;-76
2024/01/14 01:15:53;;;;;;;50.40;20.57;;;;;;;-4.33;100.00;97354.00;4993074;28;20485;-75
2024/01/14 01:18:19;;;;;;;50.42;18.85;;;;;;;-4.31;100.00;97354.66;4992963;28;20422;-76
2024/01/14 01:20:46;;;;;;;62.53;24.15;;;;;;;-4.30;100.00;97351.91;4992940;28;20411;-76
2024/01/14 01:23:13;;;;;;;58.42;23.17;;;;;;;-4.31;100.00;97345.13;4992715;28;20402;-76
2024/01/14 01:25:40;;;;;;;81.53;29.98;;;;;;;-4.31;100.00;97333.97;4992849;28;20422;-76
2024/01/14 01:28:06;;;;;;;68.97;26.77;;;;;;;-4.32;100.00;97334.94;4992837;28;20437;-76
2024/01/14 01:30:33;;;;;;;79.30;28.58;;;;;;;-4.33;100.00;97334.13;4992718;28;20767;-76
2024/01/14 01:32:59;;;;;;;70.88;26.55;;;;;;;-4.32;100.00;97332.34;4992648;28;20453;-76
2024/01/14 01:35:25;;;;;;;95.47;36.33;;;;;;;-4.33;100.00;97330.75;4992574;28;20811;-76
2024/01/14 01:37:52;;;;;;;81.60;30.98;;;;;;;-4.31;100.00;97321.88;4992623;28;20405;-76
2024/01/14 01:40:19;;;;;;;93.07;34.03;;;;;;;-4.31;100.00;97321.06;4992608;28;20863;-76
2024/01/14 01:42:47;;;;;;;134.88;47.63;;;;;;;-4.42;100.00;97311.81;4992697;28;20962;-76
2024/01/14 01:45:13;;;;;;;123.60;46.65;;;;;;;-4.48;100.00;97312.47;4992353;28;20457;-76
2024/01/14 01:47:39;;;;;;;124.05;46.03;;;;;;;-4.50;100.00;97311.00;4992374;28;20402;-76
2024/01/14 01:50:07;;;;;;;98.40;39.33;;;;;;;-4.46;100.00;97301.97;4993149;28;20725;-76
2024/01/14 01:52:34;;;;;;;85.45;34.45;;;;;;;-4.44;100.00;97300.06;4992278;28;20434;-76
2024/01/14 01:55:01;;;;;;;75.85;30.23;;;;;;;-4.41;100.00;97297.94;4991717;28;20434;-76
2024/01/14 01:57:30;;;;;;;70.00;28.90;;;;;;;-4.38;100.00;97291.66;4992482;28;20449;-76
2024/01/14 01:59:56;;;;;;;90.82;36.00;;;;;;;-4.36;100.00;97294.91;4992384;28;20406;-76
2024/01/14 02:02:23;;;;;;;96.82;37.33;;;;;;;-4.38;100.00;97282.13;4991863;28;20442;-76
2024/01/14 02:04:49;;;;;;;89.10;32.97;;;;;;;-4.34;100.00;97280.84;4992032;28;20410;-76
2024/01/14 02:07:16;;;;;;;67.90;27.58;;;;;;;-4.34;100.00;97280.84;4992263;28;20421;-75
2024/01/14 02:09:42;;;;;;;62.67;26.00;;;;;;;-4.31;100.00;97277.13;4992061;28;20773;-76
2024/01/14 02:12:09;;;;;;;55.13;23.13;;;;;;;-4.28;100.00;97281.19;4992674;28;20417;-77
2024/01/14 02:14:36;;;;;;;57.55;23.20;;;;;;;-4.28;100.00;97270.84;4992628;28;20394;-77
2024/01/14 02:17:03;;;;;;;56.60;22.00;;;;;;;-4.25;100.00;97275.69;4992470;28;20403;-77
2024/01/14 02:19:29;;;;;;;58.22;23.73;;;;;;;-4.24;100.00;97272.13;4992906;28;20395;-77
2024/01/14 02:22:03;;;;;;;75.40;30.52;;;;;;;-4.26;100.00;97269.69;4992416;28;20445;-77
2024/01/14 02:24:32;;;;;;;82.30;31.77;;;;;;;-4.28;100.00;97261.28;4992180;28;20432;-77
2024/01/14 02:26:59;;;;;;;72.03;28.33;;;;;;;-4.30;100.00;97264.06;4992014;28;20754;-77
2024/01/14 02:29:28;;;;;;;68.70;28.42;;;;;;;-4.31;100.00;97266.78;4991759;28;20453;-77
2024/01/14 02:31:54;;;;;;;81.88;29.95;;;;;;;-4.31;100.00;97262.44;4992451;28;20482;-76
2024/01/14 02:34:21;;;;;;;75.13;28.63;;;;;;;-4.32;100.00;97260.00;4992217;28;20417;-77
2024/01/14 02:36:47;;;;;;;63.33;25.58;;;;;;;-4.33;100.00;97256.63;4992426;28;20495;-77
2024/01/14 02:39:16;;;;;;;60.42;23.95;;;;;;;-4.33;100.00;97251.44;4991913;28;20402;-77
2024/01/14 02:41:44;;;;;;;52.53;22.95;;;;;;;-4.31;100.00;97249.53;4992060;28;20811;-77
2024/01/14 02:44:11;;;;;;;53.15;22.55;;;;;;;-4.29;100.00;97264.88;4992230;28;20410;-77
2024/01/14 02:46:37;;;;;;;61.28;24.67;;;;;;;-4.28;100.00;97261.28;4992245;28;20415;-77
2024/01/14 02:49:03;;;;;;;61.20;23.92;;;;;;;-4.29;100.00;97257.13;4991909;28;20409;-77
2024/01/14 02:51:30;;;;;;;59.17;23.75;;;;;;;-4.28;100.00;97252.75;4991828;28;20409;-77
2024/01/14 02:53:56;;;;;;;54.08;22.85;;;;;;;-4.29;100.00;97249.38;4991898;28;20414;-77
2024/01/14 02:56:22;;;;;;;71.18;25.85;;;;;;;-4.30;100.00;97251.16;4991727;28;20501;-77
2024/01/14 02:58:49;;;;;;;63.78;23.85;;;;;;;-4.31;100.00;97244.34;4992205;28;20434;-77
2024/01/14 03:01:16;;;;;;;63.42;24.83;;;;;;;-4.31;100.00;97241.78;4991979;28;20414;-77
2024/01/14 03:03:42;;;;;;;58.47;22.63;;;;;;;-4.31;100.00;97248.72;4991777;28;20408;-77
2024/01/14 03:06:08;;;;;;;58.97;23.13;;;;;;;-4.31;100.00;97246.13;4992845;28;20426;-77
2024/01/14 03:08:34;;;;;;;61.75;23.45;;;;;;;-4.33;100.00;97246.28;4995791;28;20775;-77
2024/01/14 03:11:00;;;;;;;52.20;22.20;;;;;;;-4.33;100.00;97242.88;4995456;28;20409;-77
2024/01/14 03:13:28;;;;;;;53.07;21.50;;;;;;;-4.35;100.00;97242.25;4995571;28;20493;-77
2024/01/14 03:15:55;;;;;;;65.25;24.88;;;;;;;-4.37;100.00;97232.09;4995634;28;20411;-76
2024/01/14 03:18:21;;;;;;;70.82;27.83;;;;;;;-4.39;100.00;97233.22;4995812;28;20398;-77
2024/01/14 03:20:47;;;;;;;73.50;28.50;;;;;;;-4.40;100.00;97236.75;4995497;28;20881;-76
2024/01/14 03:23:13;;;;;;;69.13;26.42;;;;;;;-4.39;100.00;97243.53;4995170;28;20407;-76
2024/01/14 03:25:40;;;;;;;60.35;23.65;;;;;;;-4.39;100.00;97248.72;4995028;28;20982;-76
2024/01/14 03:28:06;;;;;;;56.65;22.67;;;;;;;-4.39;100.00;97244.34;4995450;28;20823;-77
2024/01/14 03:30:32;;;;;;;54.38;22.30;;;;;;;-4.38;100.00;97240.00;4995120;28;20737;-77
2024/01/14 03:32:59;;;;;;;51.65;20.75;;;;;;;-4.37;100.00;97249.38;4995367;28;20398;-76
2024/01/14 03:35:25;;;;;;;67.75;25.75;;;;;;;-4.38;100.00;97247.75;4994999;28;20465;-76
2024/01/14 03:37:52;;;;;;;56.10;23.83;;;;;;;-4.39;100.00;97256.47;4995033;28;20399;-77
2024/01/14 03:40:18;;;;;;;59.20;23.00;;;;;;;-4.40;100.00;97250.47;4994778;28;20398;-76
2024/01/14 03:42:44;;;;;;;55.40;22.80;;;;;;;-4.40;100.00;97240.16;4995186;28;20807;-77
2024/01/14 03:45:10;;;;;;;52.93;20.93;;;;;;;-4.41;100.00;97238.53;4994751;28;20961;-77
2024/01/14 03:47:37;;;;;;;49.25;20.00;;;;;;;-4.41;100.00;97233.38;4995037;28;20403;-77
2024/01/14 03:50:05;;;;;;;44.67;19.05;;;;;;;-4.41;100.00;97238.53;4994897;28;20404;-76
2024/01/14 03:52:31;;;;;;;56.38;23.60;;;;;;;-4.42;100.00;97238.69;4994879;28;20402;-77
2024/01/14 03:54:57;;;;;;;49.33;22.07;;;;;;;-4.43;100.00;97235.28;4995198;28;20517;-77
2024/01/14 03:57:24;;;;;;;54.65;21.02;;;;;;;-4.44;100.00;97232.91;4995122;28;20468;-77
2024/01/14 03:59:50;;;;;;;51.88;19.77;;;;;;;-4.44;100.00;97231.13;4995240;28;20441;-77
2024/01/14 04:02:16;;;;;;;49.88;20.48;;;;;;;-4.43;100.00;97221.56;4994901;28;20407;-76
2024/01/14 04:04:42;;;;;;;68.00;25.85;;;;;;;-4.43;100.00;97244.81;4994482;28;20407;-76
2024/01/14 04:07:10;;;;;;;70.03;26.30;;;;;;;-4.45;100.00;97245.00;4994208;28;20438;-76
2024/01/14 04:09:36;;;;;;;62.67;24.52;;;;;;;-4.46;100.00;97240.78;4994176;28;20410;-76
2024/01/14 04:12:02;;;;;;;54.45;22.75;;;;;;;-4.45;100.00;97239.03;4994764;28;20848;-77
2024/01/14 04:14:29;;;;;;;54.42;21.45;;;;;;;-4.45;100.00;97245.00;4994499;28;20460;-76
2024/01/14 04:16:55;;;;;;;71.40;27.80;;;;;;;-4.45;100.00;97247.59;4993802;28;20468;-76
2024/01/14 04:19:21;;;;;;;68.88;25.92;;;;;;;-4.44;100.00;97248.38;4994300;28;20402;-76
2024/01/14 04:21:48;;;;;;;68.10;25.05;;;;;;;-4.45;100.00;97255.34;4994197;28;20410;-76
2024/01/14 04:24:16;;;;;;;68.45;25.02;;;;;;;-4.46;100.00;97247.75;4994082;28;20872;-76
2024/01/14 04:26:42;;;;;;;74.20;26.73;;;;;;;-4.47;100.00;97253.88;4994323;28;20434;-76
2024/01/14 04:29:08;;;;;;;72.67;26.53;;;;;;;-4.50;100.00;97247.22;4994371;28;20402;-77
2024/01/14 04:31:34;;;;;;;72.32;26.25;;;;;;;-4.52;100.00;97241.44;4993976;28;20478;-76
2024/01/14 04:34:03;;;;;;;77.88;27.35;;;;;;;-4.53;100.00;97251.94;4993859;28;20760;-76
2024/01/14 04:36:29;;;;;;;77.70;26.67;;;;;;;-4.54;100.00;97251.13;4993651;28;20402;-76
2024/01/14 04:38:55;;;;;;;73.50;26.23;;;;;;;-4.55;100.00;97252.09;4993910;28;20410;-76
2024/01/14 04:41:22;;;;;;;63.63;23.90;;;;;;;-4.56;100.00;97250.47;4993933;28;20485;-76
2024/01/14 04:43:49;;;;;;;82.05;28.48;;;;;;;-4.57;100.00;97253.19;4992704;28;20398;-76
2024/01/14 04:46:15;;;;;;;77.70;26.10;;;;;;;-4.58;100.00;97249.00;4993700;28;20414;-76
2024/01/14 04:48:41;;;;;;;67.10;24.63;;;;;;;-4.60;100.00;97240.63;4994112;28;20433;-77
2024/01/14 04:51:07;;;;;;;75.57;26.45;;;;;;;-4.61;100.00;97249.34;4993445;28;20494;-76
2024/01/14 04:53:33;;;;;;;72.20;26.63;;;;;;;-4.62;100.00;97248.53;4993732;28;20409;-77
2024/01/14 04:55:59;;;;;;;74.85;26.50;;;;;;;-4.61;100.00;97262.25;4993799;28;20434;-76
2024/01/14 04:58:27;;;;;;;68.57;24.23;;;;;;;-4.62;100.00;97255.47;4993762;28;20464;-76
2024/01/14 05:00:53;;;;;;;61.63;23.63;;;;;;;-4.62;100.00;97258.84;4993567;28;20399;-76
2024/01/14 05:03:21;;;;;;;67.97;24.60;;;;;;;-4.62;100.00;97251.09;4993787;28;20426;-77
2024/01/14 05:05:47;;;;;;;64.45;23.40;;;;;;;-4.62;100.00;97245.94;4993810;28;20425;-77
2024/01/14 05:08:14;;;;;;;74.18;24.02;;;;;;;-4.65;100.00;97245.44;4993693;28;20399;-77
2024/01/14 05:10:40;;;;;;;72.75;24.98;;;;;;;-4.65;100.00;97259.16;4993820;28;20409;-76
2024/01/14 05:13:06;;;;;;;79.43;28.27;;;;;;;-4.69;100.00;97256.09;4993636;28;20438;-77
2024/01/14 05:15:33;;;;;;;69.90;25.27;;;;;;;-4.71;100.00;97252.06;4993427;28;20413;-77
2024/01/14 05:18:00;;;;;;;68.45;24.83;;;;;;;-4.72;100.00;97264.16;4993184;28;20460;-77
2024/01/14 05:20:27;;;;;;;88.80;30.27;;;;;;;-4.74;100.00;97265.28;4994199;28;20759;-76
2024/01/14 05:22:53;;;;;;;91.40;30.42;;;;;;;-4.78;100.00;97256.22;4993316;28;20442;-76
2024/01/14 05:25:20;;;;;;;72.82;26.10;;;;;;;-4.79;100.00;97255.44;4992722;28;20728;-76
2024/01/14 05:27:46;;;;;;;77.90;27.25;;;;;;;-4.80;100.00;97247.84;4992797;28;20732;-76
2024/01/14 05:30:13;;;;;;;90.25;31.63;;;;;;;-4.82;100.00;97260.91;4992163;28;20399;-77
2024/01/14 05:32:40;;;;;;;98.40;32.13;;;;;;;-4.85;100.00;97260.41;4992615;28;20418;-77
2024/01/14 05:35:07;;;;;;;86.22;29.77;;;;;;;-4.87;100.00;97257.97;4993107;28;20811;-76
2024/01/14 05:37:33;;;;;;;77.85;26.85;;;;;;;-4.88;100.00;97253.78;4992894;28;20954;-76
2024/01/14 05:39:59;;;;;;;76.78;27.13;;;;;;;-4.86;100.00;97253.63;4992535;28;20759;-76
2024/01/14 05:42:26;;;;;;;75.73;28.33;;;;;;;-4.86;100.00;97261.38;4992655;28;20398;-76
2024/01/14 05:44:52;;;;;;;108.72;36.78;;;;;;;-4.87;100.00;97257.19;4992423;28;20399;-77
2024/01/14 05:47:18;;;;;;;81.90;26.13;;;;;;;-4.87;100.00;97249.44;4992253;28;20445;-76
2024/01/14 05:49:45;;;;;;;73.18;26.75;;;;;;;-4.87;100.00;97250.25;4992551;28;20485;-76
2024/01/14 05:52:11;;;;;;;84.82;29.58;;;;;;;-4.87;100.00;97246.84;4992518;28;20493;-76
2024/01/14 05:54:41;;;;;;;84.47;30.08;;;;;;;-4.86;100.00;97248.47;4992333;28;20433;-76
2024/01/14 05:57:08;;;;;;;104.47;34.95;;;;;;;-4.89;100.00;97246.22;4992194;28;20402;-76
2024/01/14 05:59:34;;;;;;;97.88;33.22;;;;;;;-4.93;100.00;97244.91;4991961;28;20402;-76
2024/01/14 06:02:00;;;;;;;106.82;35.58;;;;;;;-4.96;100.00;97247.81;4991776;28;20497;-76
2024/01/14 06:04:26;;;;;;;109.70;36.97;;;;;;;-5.02;100.00;97238.09;4991945;28;20406;-76
2024/01/14 06:06:53;;;;;;;123.40;42.90;;;;;;;-5.09;100.00;97237.91;4992050;28;20465;-77
2024/01/14 06:09:19;;;;;;;98.38;33.30;;;;;;;-5.14;100.00;97230.66;4992089;28;20493;-77
2024/01/14 06:11:46;;;;;;;125.00;43.65;;;;;;;-5.31;100.00;97226.41;4991933;28;20830;-76
2024/01/14 06:14:12;;;;;;;114.40;38.88;;;;;;;-5.29;100.00;97229.66;4991692;28;20399;-76
2024/01/14 06:16:39;;;;;;;106.70;36.08;;;;;;;-5.29;100.00;97228.84;4991580;28;20456;-76
2024/01/14 06:19:05;;;;;;;96.55;29.98;;;;;;;-5.21;100.00;97227.09;4992430;28;20445;-76
2024/01/14 06:21:31;;;;;;;84.00;27.25;;;;;;;-5.13;100.00;97236.63;4991978;28;20420;-76
2024/01/14 06:23:59;;;;;;;95.60;32.83;;;;;;;-5.11;100.00;97238.06;4991905;28;20426;-76
2024/01/14 06:26:25;;;;;;;90.68;32.28;;;;;;;-5.09;100.00;97231.00;4991779;28;20422;-76
2024/01/14 06:28:52;;;;;;;103.97;34.30;;;;;;;-5.10;100.00;97234.53;4991739;28;20737;-77
2024/01/14 06:31:18;;;;;;;81.25;28.17;;;;;;;-5.12;100.00;97228.75;4991739;28;20717;-76
2024/01/14 06:33:44;;;;;;;105.68;34.58;;;;;;;-5.14;100.00;97235.00;4991758;28;20926;-76
2024/01/14 06:36:10;;;;;;;91.77;31.10;;;;;;;-5.16;100.00;97224.84;4991706;28;20418;-77
2024/01/14 06:38:36;;;;;;;73.85;29.00;;;;;;;-5.16;100.00;97227.41;4996561;28;20514;-78
2024/01/14 06:41:05;;;;;;;68.25;25.92;;;;;;;-5.13;100.00;97226.31;4985993;28;20901;-79
2024/01/14 06:43:31;;;;;;;65.90;26.27;;;;;;;-5.14;100.00;97211.78;4980588;28;20404;-81
2024/01/14 06:45:57;;;;;;;87.75;32.33;;;;;;;-5.16;100.00;97209.38;4984425;28;20432;-79
2024/01/14 06:48:23;;;;;;;95.83;35.17;;;;;;;-5.19;100.00;97203.72;5003623;28;20920;-79
2024/01/14 06:50:49;;;;;;;93.97;34.25;;;;;;;-5.22;100.00;97198.88;5000393;28;20414;-78
2024/01/14 06:53:15;;;;;;;121.63;40.83;;;;;;;-5.28;100.00;97199.50;5004821;28;20433;-78
2024/01/14 06:55:41;;;;;;;100.68;35.15;;;;;;;-5.32;100.00;97193.03;5006223;28;20465;-79
2024/01/14 06:58:09;;;;;;;99.93;33.92;;;;;;;-5.36;100.00;97189.97;5001849;28;20482;-79
2024/01/14 07:00:35;;;;;;;101.15;34.50;;;;;;;-5.38;100.00;97173.81;5002077;28;20438;-79
2024/01/14 07:03:02;;;;;;;85.90;31.52;;;;;;;-5.39;100.00;97167.03;4998316;28;20884;-79
2024/01/14 07:05:28;;;;;;;116.50;39.72;;;;;;;-5.43;100.00;97159.78;5006827;28;20447;-79
2024/01/14 07:07:54;;;;;;;115.70;39.20;;;;;;;-5.44;100.00;97150.44;5005627;28;20410;-79
2024/01/14 07:10:20;;;;;;;111.57;38.07;;;;;;;-5.44;100.00;97140.13;4996321;28;20812;-79
2024/01/14 07:12:46;;;;;;;116.72;40.30;;;;;;;-5.49;100.00;97138.81;4992968;28;20813;-77
2024/01/14 07:15:14;;;;;;;94.05;34.03;;;;;;;-5.50;100.00;97129.47;5001061;28;20437;-77
2024/01/14 07:17:40;;;;;;;82.47;30.23;;;;;;;-5.51;100.00;97120.13;4999516;28;20436;-77
2024/01/14 07:20:07;;;;;;;119.70;40.15;;;;;;;-5.56;100.00;97126.69;4998640;28;20915;-77
2024/01/14 07:22:33;;;;;;;115.22;38.55;;;;;;;-5.59;100.00;97130.41;5002135;28;20410;-77
2024/01/14 07:24:59;;;;;;;120.50;40.70;;;;;;;-5.65;100.00;97135.38;5000007;28;20398;-77
2024/01/14 07:27:25;;;;;;;98.65;35.10;;;;;;;-5.65;100.00;97130.22;4997243;28;20782;-77
2024/01/14 07:29:51;;;;;;;120.40;38.67;;;;;;;-5.70;100.00;97135.03;4997039;28;20504;-77
2024/01/14 07:32:19;;;;;;;122.87;43.70;;;;;;;-5.73;100.00;97127.63;5000436;28;20992;-77
2024/01/14 07:34:45;;;;;;;127.27;42.93;;;;;;;-5.79;100.00;97128.25;4994603;28;20450;-77
2024/01/14 07:37:11;;;;;;;127.05;40.17;;;;;;;-5.79;100.00;97125.69;4997976;28;20401;-77
2024/01/14 07:39:37;;;;;;;117.57;39.33;;;;;;;-5.82;100.00;97123.41;4995135;28;20858;-77
2024/01/14 07:42:04;;;;;;;102.03;35.40;;;;;;;-5.84;100.00;97113.25;4998937;28;20402;-76
2024/01/14 07:44:31;;;;;;;84.43;30.47;;;;;;;-5.86;100.00;97115.97;4972144;28;20492;-77
2024/01/14 07:46:57;;;;;;;112.72;37.88;;;;;;;-5.85;100.00;97114.19;4973061;28;20774;-76
2024/01/14 07:49:25;;;;;;;90.85;32.65;;;;;;;-5.82;100.00;97118.25;4992819;28;20453;-76
2024/01/14 07:51:51;;;;;;;66.35;26.65;;;;;;;-5.80;100.00;97108.59;4991499;28;20445;-77
2024/01/14 07:54:17;;;;;;;65.45;25.75;;;;;;;-5.77;100.00;97111.66;4995883;28;20457;-78
2024/01/14 07:56:43;;;;;;;72.32;27.70;;;;;;;-5.71;100.00;97115.41;5001950;28;20424;-78
2024/01/14 07:59:09;;;;;;;74.40;28.27;;;;;;;-5.65;100.00;97110.41;5008734;28;20494;-78
2024/01/14 08:01:35;;;;;;;92.32;34.03;;;;;;;-5.59;100.00;97107.22;4993820;28;20758;-76
2024/01/14 08:04:02;;;;;;;92.88;34.83;;;;;;;-5.54;100.00;97104.97;4999123;28;20899;-77
2024/01/14 08:06:30;;;;;;;113.80;41.58;;;;;;;-5.51;100.00;97109.00;4997501;28;20418;-77
2024/01/14 08:08:56;;;;;;;91.75;35.13;;;;;;;-5.43;100.00;97108.22;4987594;28;20403;-76
2024/01/14 08:11:22;;;;;;;89.70;34.25;;;;;;;-5.37;100.00;97100.66;5001255;28;20862;-77
2024/01/14 08:13:49;;;;;;;99.27;35.90;;;;;;;-5.30;100.00;97101.63;4992623;28;20408;-78
2024/01/14 08:16:15;;;;;;;93.22;33.90;;;;;;;-5.21;100.00;97102.44;4993564;28;20404;-77
2024/01/14 08:18:42;;;;;;;102.68;37.72;;;;;;;-5.17;100.00;97086.47;4991992;28;20459;-77
2024/01/14 08:21:11;;;;;;;85.03;34.10;;;;;;;-5.15;100.00;97102.63;4994077;28;20506;-77
2024/01/14 08:23:40;;;;;;;74.07;29.63;;;;;;;-5.10;100.00;97091.81;4977227;28;22264;-77
2024/01/14 08:26:07;;;;;;;63.00;26.27;;;;;;;-5.04;100.00;97087.78;4983656;28;20799;-76
2024/01/14 08:28:35;;;;;;;105.80;41.28;;;;;;;-5.10;100.00;97087.44;4975203;28;20466;-76
2024/01/14 08:31:02;;;;;;;110.20;41.50;;;;;;;-5.11;100.00;97085.84;5002286;28;20719;-77
2024/01/14 08:33:28;;;;;;;93.30;38.75;;;;;;;-5.04;100.00;97082.63;4994981;28;20489;-76
2024/01/14 08:35:55;;;;;;;77.45;32.50;;;;;;;-5.02;100.00;97075.50;5003881;28;20409;-78
2024/01/14 08:38:21;;;;;;;73.03;30.77;;;;;;;-4.95;100.00;97082.47;5004920;28;20862;-77
2024/01/14 08:40:48;;;;;;;64.53;28.02;;;;;;;-4.87;100.00;97079.06;5009357;28;20874;-77
2024/01/14 08:43:15;;;;;;;89.53;37.90;;;;;;;-4.86;100.00;97078.09;5005655;28;20494;-77
2024/01/14 08:45:41;;;;;;;94.82;38.97;;;;;;;-4.96;100.00;97074.91;5001849;28;20517;-77
2024/01/14 08:48:07;;;;;;;94.13;39.63;;;;;;;-4.86;100.00;97080.69;4997165;28;20440;-76
2024/01/14 08:50:33;;;;;;;82.47;34.75;;;;;;;-4.86;100.00;97075.53;4995069;28;20413;-77
2024/01/14 08:52:59;;;;;;;90.37;38.73;;;;;;;-4.79;100.00;97072.13;4994511;28;20402;-77
2024/01/14 08:55:26;;;;;;;78.78;33.28;;;;;;;-4.66;100.00;97070.84;4993162;28;20453;-77
2024/01/14 08:57:53;;;;;;;72.95;31.77;;;;;;;-4.55;100.00;97068.72;4991787;28;20394;-78
2024/01/14 09:00:19;;;;;;;89.95;39.47;;;;;;;-4.59;100.00;97056.31;4993206;28;20438;-77
2024/01/14 09:02:46;;;;;;;84.07;35.50;;;;;;;-4.57;100.00;97049.97;4992856;28;20886;-77
2024/01/14 09:05:12;;;;;;;97.47;42.40;;;;;;;-4.69;100.00;97054.69;4992669;28;20435;-77
2024/01/14 09:07:38;;;;;;;84.60;36.17;;;;;;;-4.57;100.00;97054.34;4993607;28;20410;-77
2024/01/14 09:10:05;;;;;;;85.18;37.05;;;;;;;-4.46;100.00;97054.00;4993441;28;20947;-76
2024/01/14 09:12:31;;;;;;;66.85;30.70;;;;;;;-4.28;100.00;97062.34;4992904;28;20880;-77
2024/01/14 09:14:59;;;;;;;53.77;26.10;;;;;;;-4.10;100.00;97062.13;4992860;28;20413;-76
2024/01/14 09:17:25;;;;;;;83.15;37.33;;;;;;;-4.24;100.00;97063.63;4992823;28;20404;-76
2024/01/14 09:19:51;;;;;;;79.60;35.85;;;;;;;-4.14;100.00;97060.88;4992520;28;20845;-77
2024/01/14 09:22:17;;;;;;;75.38;34.28;;;;;;;-4.08;100.00;97057.63;4992972;28;20417;-76
2024/01/14 09:24:45;;;;;;;76.63;36.28;;;;;;;-4.08;100.00;97055.84;4992857;28;20498;-76
2024/01/14 09:27:11;;;;;;;79.63;36.47;;;;;;;-4.04;100.00;97056.28;4992665;28;20513;-77
2024/01/14 09:29:38;;;;;;;79.95;36.53;;;;;;;-4.00;100.00;97047.25;4992608;28;20803;-77
2024/01/14 09:32:06;;;;;;;80.90;35.95;;;;;;;-3.92;100.00;97047.22;4992300;28;20445;-76
2024/01/14 09:34:32;;;;;;;80.53;37.20;;;;;;;-3.87;100.00;97036.34;4992252;28;20481;-77
2024/01/14 09:36:58;;;;;;;78.95;36.58;;;;;;;-3.78;100.00;97032.75;4992502;28;20441;-76
2024/01/14 09:39:25;;;;;;;76.40;35.10;;;;;;;-3.67;100.00;97037.53;4992436;28;20614;-77
2024/01/14 09:42:02;;;;;;;71.95;33.95;;;;;;;-3.59;100.00;97043.47;4992470;28;20402;-77
2024/01/14 09:44:28;;;;;;;87.85;40.95;;;;;;;-3.61;100.00;97036.88;4992639;28;20817;-77
2024/01/14 09:46:56;;;;;;;70.32;35.10;;;;;;;-3.44;100.00;97038.34;4993001;28;20895;-78
2024/01/14 09:49:23;;;;;;;77.57;36.90;;;;;;;-3.39;100.00;97032.69;4993039;28;20391;-78
2024/01/14 09:51:50;;;;;;;64.70;32.38;;;;;;;-3.28;100.00;97033.06;4993121;28;20402;-78
2024/01/14 09:54:16;;;;;;;68.35;33.75;;;;;;;-3.16;100.00;97036.84;4993249;28;20421;-76
2024/01/14 09:56:44;;;;;;;72.38;35.95;;;;;;;-3.06;100.00;97028.88;4993631;28;20775;-78
2024/01/14 09:59:12;;;;;;;70.95;36.17;;;;;;;-2.84;100.00;97020.25;4993923;28;20942;-78
2024/01/14 10:01:39;;;;;;;78.72;37.92;;;;;;;-2.44;100.00;97018.25;4994405;28;20434;-77
2024/01/14 10:04:06;;;;;;;72.18;37.30;;;;;;;-1.86;100.00;97012.19;4996316;28;20511;-77
2024/01/14 10:06:34;;;;;;;60.65;31.77;;;;;;;-1.14;100.00;96996.56;4994276;28;20418;-77
2024/01/14 10:09:00;;;;;;;57.22;29.90;;;;;;;-0.41;100.00;97010.91;4992105;28;20409;-76
2024/01/14 10:11:27;;;;;;;53.63;28.17;;;;;;;0.10;100.00;96997.53;4991784;28;20455;-76
2024/01/14 10:13:53;;;;;;;65.65;34.78;;;;;;;0.44;100.00;96987.03;4992314;28;20395;-76
2024/01/14 10:16:19;;;;;;;51.65;28.05;;;;;;;0.87;100.00;96982.28;4991700;28;20403;-76
2024/01/14 10:18:45;;;;;;;57.60;31.15;;;;;;;1.17;100.00;96986.09;4991928;28;20489;-76
2024/01/14 10:21:12;;;;;;;58.10;30.92;;;;;;;1.51;100.00;96976.41;4992084;28;20514;-77
2024/01/14 10:23:40;;;;;;;48.92;27.02;;;;;;;1.83;100.00;96975.53;4991546;28;20406;-76
2024/01/14 10:26:07;;;;;;;42.10;24.83;;;;;;;2.13;100.00;96968.00;4991718;28;20458;-77
2024/01/14 10:28:35;;;;;;;42.57;24.97;;;;;;;2.42;100.00;96964.03;4991582;28;20465;-77
2024/01/14 10:31:03;;;;;;;42.38;24.23;;;;;;;2.87;100.00;96964.75;4991689;28;20446;-77
2024/01/14 10:33:32;;;;;;;39.38;24.00;;;;;;;3.03;100.00;96955.56;4991789;28;20421;-77
2024/01/14 10:35:58;;;;;;;58.17;32.60;;;;;;;2.85;100.00;96951.13;4991613;28;20410;-76
2024/01/14 10:38:25;;;;;;;52.22;29.05;;;;;;;2.91;100.00;96939.00;4991482;28;20497;-76
2024/01/14 10:40:53;;;;;;;55.13;29.52;;;;;;;2.53;100.00;96944.28;4991453;28;20431;-76
2024/01/14 10:43:23;;;;;;;49.55;27.92;;;;;;;2.25;100.00;96939.44;4991363;28;20418;-76
2024/01/14 10:45:52;;;;;;;60.30;32.97;;;;;;;1.54;100.00;96929.06;4991530;28;20594;-77
2024/01/14 10:48:24;;;;;;;63.15;33.67;;;;;;;1.34;100.00;96926.53;4991452;28;20426;-77
2024/01/14 10:50:54;;;;;;;52.55;29.27;;;;;;;1.83;100.00;96918.13;4991491;28;20876;-76
2024/01/14 10:53:23;;;;;;;46.60;26.35;;;;;;;2.52;100.00;96903.50;4991149;28;20404;-76
2024/01/14 10:55:56;;;;;;;36.40;21.83;;;;;;;3.30;100.00;96903.84;4991167;28;20387;-76
2024/01/14 10:58:26;;;;;;;46.00;26.73;;;;;;;3.92;100.00;96905.34;4991689;28;20749;-76
2024/01/14 11:00:56;;;;;;;56.05;31.70;;;;;;;4.10;100.00;96896.66;4992504;28;20880;-77
2024/01/14 11:03:24;;;;;;;59.17;31.33;;;;;;;4.04;100.00;96887.09;4992812;28;20438;-77
2024/01/14 11:05:51;;;;;;;49.13;27.15;;;;;;;4.46;100.00;96878.22;4991090;28;20422;-77